createdAt,value
2019-03-05T00:00:32.478Z,12.80
2019-03-05T00:05:38.038Z,12.60
2019-03-05T00:10:43.500Z,12.20
2019-03-05T00:15:50.438Z,12.60
2019-03-05T00:20:55.879Z,11.40
2019-03-05T00:26:01.307Z,11.30
2019-03-05T00:31:09.719Z,11.10
2019-03-05T00:36:24.940Z,10.80
2019-03-05T00:41:33.369Z,10.50
2019-03-05T00:47:02.418Z,10.40
2019-03-05T00:52:10.959Z,10.20
2019-03-05T00:57:31.305Z,10.10
2019-03-05T01:02:51.687Z,10.00
2019-03-05T01:07:57.151Z,9.80
2019-03-05T01:13:02.822Z,9.90
2019-03-05T01:18:08.369Z,10.20
2019-03-05T01:23:13.835Z,10.10
2019-03-05T01:28:19.231Z,10.30
2019-03-05T01:33:26.260Z,10.30
2019-03-05T01:38:33.264Z,10.00
2019-03-05T01:43:38.652Z,10.20
2019-03-05T01:48:43.988Z,10.20
2019-03-05T01:53:49.454Z,10.30
2019-03-05T01:58:54.785Z,10.30
2019-03-05T02:04:00.152Z,10.10
2019-03-05T02:09:07.907Z,10.10
2019-03-05T02:14:13.702Z,10.20
2019-03-05T02:19:45.129Z,10.10
2019-03-05T02:25:23.964Z,10.00
2019-03-05T02:30:47.458Z,9.80
2019-03-05T02:36:07.755Z,10.00
2019-03-05T02:41:19.034Z,10.00
2019-03-05T02:46:33.201Z,10.00
2019-03-05T02:51:41.754Z,10.30
2019-03-05T02:57:06.474Z,10.20
2019-03-05T03:02:14.667Z,10.20
2019-03-05T03:07:19.992Z,10.10
2019-03-05T03:12:25.322Z,10.20
2019-03-05T03:17:30.695Z,10.10
2019-03-05T03:22:36.154Z,9.90
2019-03-05T03:27:41.957Z,10.10
2019-03-05T03:32:47.371Z,9.90
2019-03-05T03:37:52.977Z,9.90
2019-03-05T03:42:58.986Z,10.00
2019-03-05T03:48:04.622Z,10.00
2019-03-05T03:53:10.101Z,9.60
2019-03-05T03:58:15.655Z,9.70
2019-03-05T04:03:21.144Z,9.50
2019-03-05T04:08:26.711Z,9.30
2019-03-05T04:13:32.082Z,9.30
2019-03-05T04:18:37.480Z,9.00
2019-03-05T04:23:43.389Z,8.70
2019-03-05T04:28:48.763Z,8.80
2019-03-05T04:33:54.089Z,8.60
2019-03-05T04:38:59.448Z,8.70
2019-03-05T04:44:04.942Z,8.40
2019-03-05T04:49:11.896Z,8.20
2019-03-05T04:54:17.234Z,8.30
2019-03-05T04:59:22.567Z,8.20
2019-03-05T05:04:27.898Z,8.40
2019-03-05T05:09:33.237Z,8.50
2019-03-05T05:14:38.684Z,8.40
2019-03-05T05:19:44.082Z,8.30
2019-03-05T05:24:49.415Z,8.50
2019-03-05T05:29:54.751Z,8.30
2019-03-05T05:35:00.271Z,8.60
2019-03-05T05:40:26.862Z,8.40
2019-03-05T05:45:44.212Z,8.50
2019-03-05T05:50:49.630Z,8.60
2019-03-05T05:55:55.038Z,8.80
2019-03-05T06:01:02.219Z,8.70
2019-03-05T06:06:07.811Z,8.90
2019-03-05T06:11:13.182Z,8.80
2019-03-05T06:16:19.722Z,9.10
2019-03-05T06:21:25.286Z,9.40
2019-03-05T06:26:30.750Z,10.50
2019-03-05T06:31:36.159Z,12.30
2019-03-05T06:36:50.241Z,12.90
2019-03-05T06:41:55.655Z,12.10
2019-03-05T06:47:01.135Z,10.90
2019-03-05T06:52:06.546Z,10.60
2019-03-05T06:57:11.893Z,11.00
2019-03-05T07:02:17.299Z,10.30
2019-03-05T07:07:22.627Z,10.20
2019-03-05T07:12:42.826Z,10.10
2019-03-05T07:17:54.198Z,10.10
2019-03-05T07:23:14.593Z,10.40
2019-03-05T07:28:19.926Z,10.50
2019-03-05T07:33:25.259Z,10.60
2019-03-05T07:38:30.747Z,10.40
2019-03-05T07:43:36.845Z,10.30
2019-03-05T07:48:42.381Z,10.30
2019-03-05T07:53:47.707Z,9.90
2019-03-05T07:58:53.024Z,9.90
2019-03-05T08:03:58.370Z,10.00
2019-03-05T08:09:23.536Z,10.00
2019-03-05T08:14:50.200Z,10.00
2019-03-05T08:19:55.577Z,10.10
2019-03-05T08:25:00.923Z,10.30
2019-03-05T08:30:15.072Z,10.20
2019-03-05T08:35:20.645Z,10.20
2019-03-05T08:40:26.079Z,10.40
2019-03-05T08:45:31.491Z,10.30
2019-03-05T08:50:36.829Z,10.10
2019-03-05T08:55:43.240Z,9.80
2019-03-05T09:00:48.720Z,10.10
2019-03-05T09:05:54.122Z,10.00
2019-03-05T09:10:59.562Z,9.20
2019-03-05T09:16:05.253Z,9.50
2019-03-05T09:21:10.649Z,10.00
2019-03-05T09:26:17.371Z,10.30
2019-03-05T09:31:22.767Z,10.60
2019-03-05T09:36:28.174Z,10.50
2019-03-05T09:41:33.583Z,11.50
2019-03-05T09:46:39.011Z,12.90
2019-03-05T09:51:44.337Z,12.50
2019-03-05T09:56:49.757Z,11.00
2019-03-05T10:01:56.285Z,10.80
2019-03-05T10:07:01.706Z,10.30
2019-03-05T10:12:07.125Z,9.30
2019-03-05T10:17:12.730Z,8.20
2019-03-05T10:22:18.144Z,8.10
2019-03-05T10:27:23.623Z,8.40
2019-03-05T10:32:29.111Z,8.40
2019-03-05T10:37:34.602Z,8.50
2019-03-05T10:42:41.320Z,10.40
2019-03-05T10:47:49.316Z,11.00
2019-03-05T10:52:54.819Z,12.70
2019-03-05T10:58:03.532Z,12.50
2019-03-05T11:03:11.479Z,11.00
2019-03-05T11:08:23.204Z,10.30
2019-03-05T11:13:28.777Z,10.40
2019-03-05T11:18:34.973Z,11.00
2019-03-05T11:23:40.403Z,10.80
2019-03-05T11:28:45.817Z,11.00
2019-03-05T11:33:51.340Z,10.70
2019-03-05T11:38:56.978Z,11.10
2019-03-05T11:44:02.626Z,11.50
2019-03-05T11:49:08.123Z,11.60
2019-03-05T11:54:13.570Z,12.50
2019-03-05T11:59:19.270Z,12.90
2019-03-05T12:04:24.667Z,12.60
2019-03-05T12:09:30.083Z,12.00
2019-03-05T12:14:35.611Z,12.00
2019-03-05T12:19:41.040Z,12.20
2019-03-05T12:24:47.798Z,12.00
2019-03-05T12:29:53.137Z,11.90
2019-03-05T12:34:59.151Z,11.90
2019-03-05T12:40:06.117Z,11.80
2019-03-05T12:45:13.786Z,11.80
2019-03-05T12:50:23.627Z,11.40
2019-03-05T12:55:29.306Z,11.80
2019-03-05T13:00:36.007Z,12.40
2019-03-05T13:05:41.369Z,12.90
2019-03-05T13:10:46.860Z,12.70
2019-03-05T13:15:52.860Z,13.10
2019-03-05T13:21:03.447Z,13.40
2019-03-05T13:26:07.632Z,13.20
2019-03-05T13:31:13.804Z,13.50
2019-03-05T13:36:19.263Z,12.70
2019-03-05T13:41:24.586Z,11.20
2019-03-05T13:46:30.371Z,10.50
2019-03-05T13:52:03.091Z,10.80
2019-03-05T13:57:32.182Z,11.10
2019-03-05T14:02:52.861Z,11.90
2019-03-05T14:08:19.867Z,12.90
2019-03-05T14:13:25.320Z,13.50
2019-03-05T14:18:31.260Z,14.00
2019-03-05T14:23:37.032Z,14.30
2019-03-05T14:28:42.435Z,14.70
2019-03-05T14:33:50.299Z,14.10
2019-03-05T14:38:54.963Z,14.20
2019-03-05T14:44:00.561Z,14.00
2019-03-05T14:49:06.025Z,14.30
2019-03-05T14:54:11.519Z,14.30
2019-03-05T14:59:16.916Z,13.90
2019-03-05T15:04:22.429Z,13.40
2019-03-05T15:09:27.981Z,13.30
2019-03-05T15:14:33.456Z,13.50
2019-03-05T15:19:38.848Z,13.30
2019-03-05T15:24:44.274Z,13.00
2019-03-05T15:29:49.675Z,12.80
2019-03-05T15:34:55.135Z,12.70
2019-03-05T15:40:01.236Z,12.50
2019-03-05T15:45:09.971Z,12.60
2019-03-05T15:50:17.612Z,12.90
2019-03-05T15:55:23.295Z,12.80
2019-03-05T16:00:31.341Z,12.70
2019-03-05T16:05:36.755Z,12.50
2019-03-05T16:10:42.142Z,12.20
2019-03-05T16:15:47.514Z,12.20
2019-03-05T16:20:53.906Z,12.30
2019-03-05T16:25:59.375Z,12.30
2019-03-05T16:31:07.732Z,12.10
2019-03-05T16:36:15.231Z,11.70
2019-03-05T16:41:28.835Z,11.70
2019-03-05T16:46:52.479Z,11.80
2019-03-05T16:52:15.707Z,11.90
2019-03-05T16:57:34.865Z,11.70
2019-03-05T17:02:47.835Z,12.00
2019-03-05T17:08:00.982Z,11.60
2019-03-05T17:13:06.623Z,11.90
2019-03-05T17:18:12.328Z,12.20
2019-03-05T17:23:17.809Z,12.30
2019-03-05T17:28:23.292Z,12.30
2019-03-05T17:33:28.804Z,11.70
2019-03-05T17:38:34.274Z,11.30
2019-03-05T17:43:39.871Z,11.10
2019-03-05T17:48:45.343Z,10.70
2019-03-05T17:53:50.957Z,10.40
2019-03-05T17:58:56.378Z,10.50
2019-03-05T18:04:01.996Z,10.70
2019-03-05T18:09:08.286Z,10.70
2019-03-05T18:14:15.299Z,10.60
2019-03-05T18:19:21.063Z,10.60
2019-03-05T18:24:26.546Z,10.40
2019-03-05T18:29:32.127Z,10.40
2019-03-05T18:34:37.651Z,10.30
2019-03-05T18:39:43.198Z,10.40
2019-03-05T18:44:48.564Z,10.40
2019-03-05T18:49:54.000Z,10.20
2019-03-05T18:55:00.479Z,10.40
2019-03-05T19:00:21.143Z,10.20
2019-03-05T19:05:26.644Z,10.40
2019-03-05T19:10:32.307Z,10.20
2019-03-05T19:15:38.431Z,10.00
2019-03-05T19:20:45.077Z,9.90
2019-03-05T19:25:50.705Z,9.80
2019-03-05T19:30:56.829Z,9.90
2019-03-05T19:36:02.312Z,9.60
2019-03-05T19:41:07.812Z,9.80
2019-03-05T19:46:14.172Z,9.90
2019-03-05T19:51:19.698Z,9.60
2019-03-05T19:56:25.236Z,9.60
2019-03-05T20:01:32.366Z,9.60
2019-03-05T20:06:37.865Z,9.70
2019-03-05T20:11:43.340Z,9.60
2019-03-05T20:16:49.999Z,9.40
2019-03-05T20:21:55.770Z,9.60
2019-03-05T20:27:01.745Z,9.30
2019-03-05T20:32:08.203Z,9.40
2019-03-05T20:37:13.825Z,9.30
2019-03-05T20:42:19.613Z,9.40
2019-03-05T20:47:25.119Z,9.40
2019-03-05T20:52:30.522Z,9.10
2019-03-05T20:57:35.935Z,9.10
2019-03-05T21:02:41.411Z,9.30
2019-03-05T21:07:47.589Z,9.00
2019-03-05T21:12:53.142Z,9.00
2019-03-05T21:17:58.819Z,9.10
2019-03-05T21:23:04.376Z,9.00
2019-03-05T21:28:11.102Z,8.80
2019-03-05T21:33:16.736Z,9.00
2019-03-05T21:38:22.227Z,8.90
2019-03-05T21:43:27.706Z,8.80
2019-03-05T21:48:33.122Z,8.90
2019-03-05T21:53:38.518Z,8.80
2019-03-05T21:58:44.006Z,8.80
2019-03-05T22:03:50.331Z,8.80
2019-03-05T22:08:55.736Z,8.60
2019-03-05T22:14:01.161Z,8.30
2019-03-05T22:19:06.576Z,8.80
2019-03-05T22:24:11.982Z,8.90
2019-03-05T22:29:17.357Z,8.80
2019-03-05T22:34:23.146Z,9.00
2019-03-05T22:39:28.562Z,9.30
2019-03-05T22:44:34.030Z,9.30
2019-03-05T22:49:39.439Z,8.90
2019-03-05T22:54:46.534Z,8.80
2019-03-05T22:59:53.095Z,8.80
2019-03-05T23:04:58.718Z,8.80
2019-03-05T23:10:07.129Z,8.90
2019-03-05T23:15:14.433Z,9.10
2019-03-05T23:20:20.019Z,9.50
2019-03-05T23:25:25.816Z,9.10
2019-03-05T23:30:31.357Z,9.10
2019-03-05T23:35:36.902Z,9.00
2019-03-05T23:40:42.314Z,9.10
2019-03-05T23:45:48.943Z,8.90
2019-03-05T23:50:54.340Z,9.00
2019-03-05T23:55:59.737Z,8.50
